createdAt,value
2022-08-23T00:03:39.047Z,99.90
2022-08-23T00:08:48.585Z,99.90
2022-08-23T00:13:51.386Z,99.90
2022-08-23T00:18:53.707Z,99.90
2022-08-23T00:23:57.284Z,99.90
2022-08-23T00:28:59.360Z,99.90
2022-08-23T00:34:01.440Z,99.90
2022-08-23T00:39:05.110Z,99.90
2022-08-23T00:44:32.619Z,99.90
2022-08-23T00:49:38.097Z,99.90
2022-08-23T00:54:44.174Z,99.90
2022-08-23T00:59:46.920Z,99.90
2022-08-23T01:04:54.320Z,99.90
2022-08-23T01:10:02.513Z,99.90
2022-08-23T01:15:10.439Z,99.90
2022-08-23T01:20:15.957Z,99.90
2022-08-23T01:25:22.557Z,99.90
2022-08-23T01:30:28.155Z,99.90
2022-08-23T01:35:37.807Z,99.90
2022-08-23T01:40:41.986Z,99.90
2022-08-23T01:45:44.415Z,99.90
2022-08-23T01:50:47.680Z,99.90
2022-08-23T01:55:51.211Z,99.90
2022-08-23T02:00:53.415Z,99.90
2022-08-23T02:05:55.545Z,99.90
2022-08-23T02:10:59.252Z,99.90
2022-08-23T02:16:01.337Z,99.90
2022-08-23T02:21:03.552Z,99.90
2022-08-23T02:26:07.266Z,99.90
2022-08-23T02:31:09.614Z,99.90
2022-08-23T02:36:13.828Z,99.90
2022-08-23T02:41:20.836Z,99.90
2022-08-23T02:46:23.757Z,99.90
2022-08-23T02:51:28.863Z,99.90
2022-08-23T02:56:34.973Z,99.90
2022-08-23T03:01:40.025Z,99.90
2022-08-23T03:06:42.943Z,99.90
2022-08-23T03:11:50.984Z,99.90
2022-08-23T03:16:58.322Z,99.90
2022-08-23T03:22:09.254Z,99.90
2022-08-23T03:27:13.635Z,99.90
2022-08-23T03:32:19.030Z,99.90
2022-08-23T03:37:21.171Z,99.90
2022-08-23T03:42:30.886Z,99.90
2022-08-23T03:47:33.420Z,99.90
2022-08-23T03:52:40.998Z,99.90
2022-08-23T03:57:45.266Z,99.90
2022-08-23T04:02:50.044Z,99.90
2022-08-23T04:07:55.546Z,99.90
2022-08-23T04:19:48.153Z,99.90
2022-08-23T04:25:33.736Z,99.90
2022-08-23T04:31:14.052Z,99.90
2022-08-23T04:36:23.450Z,99.90
2022-08-23T04:41:43.437Z,99.90
2022-08-23T04:46:48.855Z,99.90
2022-08-23T04:51:55.604Z,99.90
2022-08-23T04:57:01.658Z,99.90
2022-08-23T05:02:07.638Z,99.90
2022-08-23T05:07:12.178Z,99.90
2022-08-23T05:12:18.093Z,99.90
2022-08-23T05:17:28.065Z,99.90
2022-08-23T05:22:36.907Z,99.90
2022-08-23T05:27:39.975Z,99.90
2022-08-23T05:32:47.452Z,99.90
2022-08-23T05:37:56.140Z,99.90
2022-08-23T05:43:00.110Z,99.90
2022-08-23T05:48:06.446Z,99.90
2022-08-23T05:53:13.775Z,99.90
2022-08-23T05:58:20.131Z,99.90
2022-08-23T06:03:26.174Z,99.90
2022-08-23T06:08:32.221Z,99.90
2022-08-23T06:13:36.830Z,99.90
2022-08-23T06:18:42.327Z,99.90
2022-08-23T06:23:52.501Z,99.90
2022-08-23T06:28:59.809Z,99.90
2022-08-23T06:34:07.458Z,99.90
2022-08-23T06:39:12.877Z,99.90
2022-08-23T06:44:17.985Z,99.90
2022-08-23T06:49:25.609Z,99.90
2022-08-23T06:54:30.731Z,99.90
2022-08-23T06:59:38.237Z,99.90
2022-08-23T07:04:46.642Z,99.90
2022-08-23T07:09:50.710Z,99.90
2022-08-23T07:14:53.385Z,99.90
2022-08-23T07:19:59.672Z,99.90
2022-08-23T07:25:04.521Z,99.90
2022-08-23T07:30:08.481Z,99.90
2022-08-23T07:35:22.246Z,99.90
2022-08-23T07:40:27.660Z,99.90
2022-08-23T07:45:35.836Z,99.50
2022-08-23T07:50:54.541Z,99.40
2022-08-23T07:56:08.945Z,98.60
2022-08-23T08:01:15.854Z,98.20
2022-08-23T08:06:27.784Z,98.20
2022-08-23T08:11:36.906Z,97.20
2022-08-23T08:16:42.929Z,97.30
2022-08-23T08:21:48.568Z,97.00
2022-08-23T08:26:53.378Z,96.20
2022-08-23T08:31:59.812Z,96.10
2022-08-23T08:37:06.761Z,96.10
2022-08-23T08:42:31.690Z,95.60
2022-08-23T08:47:41.199Z,95.40
2022-08-23T08:52:53.664Z,95.00
2022-08-23T08:57:57.820Z,96.00
2022-08-23T09:03:06.664Z,96.50
2022-08-23T09:08:45.454Z,96.40
2022-08-23T09:14:20.420Z,96.40
2022-08-23T09:19:29.494Z,96.30
2022-08-23T09:24:46.941Z,96.20
2022-08-23T09:30:32.079Z,96.40
2022-08-23T09:41:23.574Z,96.10
2022-08-23T09:47:00.909Z,95.70
2022-08-23T10:04:50.942Z,95.60
2022-08-23T10:10:46.292Z,95.60
2022-08-23T10:23:02.708Z,95.10
2022-08-23T10:48:10.041Z,93.80
2022-08-23T10:54:04.353Z,93.10
2022-08-23T11:05:32.626Z,91.80
2022-08-23T11:11:29.972Z,91.60
2022-08-23T11:17:20.535Z,91.30
2022-08-23T11:29:25.258Z,90.10
2022-08-23T11:35:07.586Z,87.50
2022-08-23T11:41:07.962Z,87.80
2022-08-23T11:47:25.093Z,88.80
2022-08-23T11:59:10.550Z,90.30
2022-08-23T12:04:34.111Z,90.20
2022-08-23T12:09:58.568Z,88.90
2022-08-23T12:15:12.532Z,87.20
2022-08-23T12:20:32.558Z,86.80
2022-08-23T12:25:39.541Z,87.60
2022-08-23T12:31:40.228Z,86.40
2022-08-23T12:37:25.234Z,85.30
2022-08-23T13:00:36.259Z,82.80
2022-08-23T13:18:54.806Z,80.80
2022-08-23T13:24:00.819Z,80.70
2022-08-23T13:30:27.841Z,79.60
2022-08-23T13:36:30.384Z,78.40
2022-08-23T13:41:53.911Z,76.10
2022-08-23T13:46:59.097Z,72.60
2022-08-23T13:58:30.401Z,77.60
2022-08-23T14:04:05.036Z,79.90
2022-08-23T14:09:31.036Z,81.50
2022-08-23T14:15:14.583Z,83.90
2022-08-23T14:20:56.481Z,86.30
2022-08-23T14:32:08.435Z,87.90
2022-08-23T14:38:00.589Z,88.60
2022-08-23T14:42:43.247Z,89.30
2022-08-23T14:47:52.784Z,89.70
2022-08-23T14:52:59.537Z,89.30
2022-08-23T14:58:04.912Z,89.70
2022-08-23T15:03:12.448Z,90.30
2022-08-23T15:08:17.391Z,90.00
2022-08-23T15:13:32.435Z,90.30
2022-08-23T15:18:42.369Z,90.40
2022-08-23T15:24:42.429Z,90.10
2022-08-23T15:41:29.767Z,83.20
2022-08-23T15:46:34.829Z,83.60
2022-08-23T15:51:54.193Z,85.30
2022-08-23T15:56:56.966Z,85.60
2022-08-23T16:01:59.807Z,87.50
2022-08-23T16:07:09.025Z,88.00
2022-08-23T16:12:17.625Z,87.30
2022-08-23T16:17:21.937Z,87.70
2022-08-23T16:22:37.856Z,90.00
2022-08-23T16:27:42.265Z,90.50
2022-08-23T16:32:50.029Z,91.00
2022-08-23T16:38:00.735Z,91.40
2022-08-23T16:43:04.683Z,91.60
2022-08-23T16:48:12.940Z,92.20
2022-08-23T16:53:21.680Z,92.00
2022-08-23T16:58:51.452Z,91.90
2022-08-23T17:03:57.083Z,92.60
2022-08-23T17:09:00.822Z,93.30
2022-08-23T17:14:05.077Z,93.60
2022-08-23T17:19:08.578Z,93.60
2022-08-23T17:24:14.227Z,94.20
2022-08-23T17:29:20.313Z,94.70
2022-08-23T17:34:25.417Z,94.90
2022-08-23T17:39:31.592Z,95.00
2022-08-23T17:44:34.155Z,95.10
2022-08-23T17:49:39.354Z,95.40
2022-08-23T17:54:46.360Z,95.70
2022-08-23T17:59:53.445Z,95.90
2022-08-23T18:04:56.298Z,96.30
2022-08-23T18:10:01.282Z,96.40
2022-08-23T18:15:07.303Z,96.70
2022-08-23T18:20:20.101Z,96.90
2022-08-23T18:25:27.855Z,97.10
2022-08-23T18:30:38.933Z,97.10
2022-08-23T18:35:42.719Z,97.20
2022-08-23T18:41:00.989Z,97.30
2022-08-23T18:46:10.115Z,97.30
2022-08-23T18:51:18.179Z,97.30
2022-08-23T18:56:22.747Z,97.40
2022-08-23T19:01:32.239Z,97.50
2022-08-23T19:06:38.879Z,97.50
2022-08-23T19:11:49.778Z,97.90
2022-08-23T19:17:00.900Z,97.60
2022-08-23T19:22:15.598Z,97.70
2022-08-23T19:27:23.022Z,97.70
2022-08-23T19:32:29.114Z,97.80
2022-08-23T19:37:39.253Z,97.80
2022-08-23T19:42:45.607Z,97.80
2022-08-23T19:47:49.444Z,97.90
2022-08-23T19:53:00.097Z,97.90
2022-08-23T19:58:09.009Z,98.00
2022-08-23T20:03:15.605Z,98.10
2022-08-23T20:08:19.064Z,98.20
2022-08-23T20:13:46.280Z,98.30
2022-08-23T20:18:54.128Z,98.20
2022-08-23T20:24:10.000Z,98.20
2022-08-23T20:29:58.121Z,98.10
2022-08-23T20:35:48.048Z,97.90
2022-08-23T20:52:50.047Z,97.40
2022-08-23T20:57:55.208Z,97.30
2022-08-23T21:03:07.934Z,97.30
2022-08-23T21:08:13.735Z,97.10
2022-08-23T21:13:22.696Z,96.90
2022-08-23T21:18:34.170Z,96.90
2022-08-23T21:23:43.236Z,96.90
2022-08-23T21:28:48.888Z,96.80
2022-08-23T21:34:14.800Z,96.60
2022-08-23T21:39:39.021Z,96.50
2022-08-23T22:09:03.152Z,96.40
2022-08-23T22:14:30.438Z,96.30
2022-08-23T22:19:33.965Z,96.20
2022-08-23T22:24:37.389Z,96.20
2022-08-23T22:29:39.445Z,96.00
2022-08-23T22:34:41.712Z,96.20
2022-08-23T22:39:46.029Z,96.20
2022-08-23T22:44:48.272Z,96.10
2022-08-23T22:49:52.712Z,96.10
2022-08-23T22:54:56.432Z,96.00
2022-08-23T23:00:01.330Z,96.20
2022-08-23T23:05:05.786Z,96.20
2022-08-23T23:10:10.325Z,96.20
2022-08-23T23:15:12.766Z,96.30
2022-08-23T23:20:32.367Z,96.30
2022-08-23T23:25:35.949Z,96.10
2022-08-23T23:30:38.703Z,96.10
2022-08-23T23:35:41.995Z,96.20
2022-08-23T23:40:45.575Z,96.20
2022-08-23T23:45:47.726Z,96.10
2022-08-23T23:50:49.881Z,96.00
2022-08-23T23:56:00.696Z,95.70
